Time;durP1;ratioP1;P1;durP2;ratioP2;P2;SDS_P1;SDS_P2;PMS_P1;PMS_P2;Temp;Humidity;BMP_temperature;BMP_pressure;BME280_temperature;BME280_humidity;BME280_pressure;Samples;Min_cycle;Max_cycle;Signal;HPM_P1;HPM_P2
2024/02/13 00:00:35;;;;;;;35.00;20.50;;;;;;;9.33;66.94;98218.87;232179;204;137682;-60
2024/02/13 00:05:58;;;;;;;30.70;19.60;;;;;;;9.25;67.04;98225.79;232188;201;138037;-60
2024/02/13 00:11:06;;;;;;;32.60;20.70;;;;;;;9.18;67.25;98229.61;232103;197;154293;-58
2024/02/13 00:16:10;;;;;;;36.30;21.80;;;;;;;9.12;67.39;98236.92;232205;204;137830;-60
2024/02/13 00:21:14;;;;;;;34.40;20.20;;;;;;;9.08;67.52;98244.81;232289;202;137062;-61
2024/02/13 00:26:17;;;;;;;25.10;16.30;;;;;;;9.08;67.47;98254.07;232079;204;152700;-61
2024/02/13 00:31:20;;;;;;;33.40;18.30;;;;;;;9.15;67.33;98261.02;232020;201;137837;-62
2024/02/13 00:36:23;;;;;;;32.60;18.80;;;;;;;9.25;67.17;98258.55;232114;204;138135;-57
2024/02/13 00:41:26;;;;;;;35.00;19.70;;;;;;;9.25;66.87;98262.77;232122;204;152664;-58
2024/02/13 00:46:31;;;;;;;34.40;20.40;;;;;;;9.17;66.94;98269.17;232070;204;138468;-60
2024/02/13 00:51:34;;;;;;;29.80;18.10;;;;;;;9.12;66.96;98276.05;232118;198;139180;-59
2024/02/13 00:56:38;;;;;;;30.70;17.90;;;;;;;9.14;66.95;98284.58;231963;198;152135;-59
2024/02/13 01:01:43;;;;;;;26.50;16.20;;;;;;;9.08;66.47;98293.27;231858;198;137538;-61
2024/02/13 01:06:47;;;;;;;24.60;15.20;;;;;;;8.98;66.25;98298.23;232136;197;137385;-61
2024/02/13 01:11:50;;;;;;;24.80;15.90;;;;;;;8.90;66.19;98309.92;231904;197;151783;-61
2024/02/13 01:16:53;;;;;;;30.20;17.60;;;;;;;8.82;66.46;98314.71;232171;204;137106;-61
2024/02/13 01:21:57;;;;;;;23.70;13.00;;;;;;;8.77;66.28;98318.94;232293;204;139835;-60
2024/02/13 01:27:00;;;;;;;23.50;13.70;;;;;;;8.68;66.03;98327.11;231996;201;151242;-60
2024/02/13 01:32:04;;;;;;;23.80;13.10;;;;;;;8.60;65.92;98325.87;231995;198;137837;-59
2024/02/13 01:37:07;;;;;;;28.70;16.10;;;;;;;8.49;65.98;98326.94;231819;198;138105;-60
2024/02/13 01:42:11;;;;;;;26.60;15.70;;;;;;;8.39;66.28;98332.34;232137;206;151311;-60
2024/02/13 01:47:14;;;;;;;22.30;13.70;;;;;;;8.31;66.43;98336.38;231992;198;137832;-59
2024/02/13 01:52:17;;;;;;;23.20;12.70;;;;;;;8.23;66.28;98340.09;232039;202;137947;-59
2024/02/13 01:57:23;;;;;;;22.70;12.30;;;;;;;8.17;66.32;98343.13;232144;198;153730;-59
2024/02/13 02:02:26;;;;;;;20.90;10.00;;;;;;;8.08;66.26;98351.96;232068;205;137680;-59
2024/02/13 02:07:31;;;;;;;15.40;8.80;;;;;;;7.98;66.30;98360.71;231799;198;137037;-59
2024/02/13 02:12:35;;;;;;;11.70;6.20;;;;;;;8.00;66.26;98368.59;231985;203;151408;-59
2024/02/13 02:17:39;;;;;;;15.20;6.70;;;;;;;8.07;66.12;98370.04;232006;205;137143;-59
2024/02/13 02:22:43;;;;;;;11.00;7.20;;;;;;;8.20;65.85;98375.80;232028;197;136961;-62
2024/02/13 02:27:46;;;;;;;12.40;6.90;;;;;;;8.23;65.59;98380.39;232018;205;151338;-61
2024/02/13 02:32:49;;;;;;;11.40;7.40;;;;;;;8.17;65.61;98388.34;231805;198;137671;-62
2024/02/13 02:37:52;;;;;;;12.10;7.80;;;;;;;8.11;65.75;98389.25;231972;205;137042;-62
2024/02/13 02:42:55;;;;;;;14.70;8.80;;;;;;;8.08;65.91;98397.90;232102;198;151848;-62
2024/02/13 02:47:59;;;;;;;14.30;8.40;;;;;;;8.05;66.08;98402.70;231831;198;138206;-62
2024/02/13 02:53:02;;;;;;;15.10;8.80;;;;;;;8.03;66.15;98412.00;231980;202;138761;-62
2024/02/13 02:58:08;;;;;;;15.30;9.00;;;;;;;8.04;66.18;98417.57;232173;198;151060;-62
2024/02/13 03:03:11;;;;;;;18.90;9.60;;;;;;;8.04;66.22;98422.55;231991;203;137072;-61
2024/02/13 03:08:15;;;;;;;17.00;9.70;;;;;;;7.98;66.23;98434.02;231960;198;137089;-61
2024/02/13 03:13:18;;;;;;;16.30;9.60;;;;;;;7.87;66.50;98442.34;231993;201;151305;-59
2024/02/13 03:18:24;;;;;;;20.10;9.80;;;;;;;7.79;66.87;98446.67;232058;199;139489;-59
2024/02/13 03:23:28;;;;;;;23.70;10.10;;;;;;;7.76;66.99;98449.50;231933;198;137861;-61
2024/02/13 03:28:31;;;;;;;15.60;9.30;;;;;;;7.71;67.14;98452.42;231804;198;151430;-60
2024/02/13 03:33:35;;;;;;;16.60;9.10;;;;;;;7.70;67.19;98451.80;232067;199;138209;-59
2024/02/13 03:38:38;;;;;;;16.50;9.60;;;;;;;7.71;67.36;98459.70;232033;198;137463;-61
2024/02/13 03:43:43;;;;;;;16.70;9.20;;;;;;;7.74;67.28;98462.67;232109;198;151419;-61
2024/02/13 03:48:46;;;;;;;14.80;9.30;;;;;;;7.79;67.22;98468.58;232052;203;138434;-60
2024/02/13 03:53:50;;;;;;;16.60;9.70;;;;;;;7.79;67.19;98470.70;232009;204;139957;-61
2024/02/13 03:58:53;;;;;;;17.00;9.50;;;;;;;7.76;67.20;98475.08;231895;203;151490;-61
2024/02/13 04:03:56;;;;;;;19.80;10.50;;;;;;;7.72;67.26;98487.38;232066;198;138189;-60
2024/02/13 04:09:02;;;;;;;15.30;9.00;;;;;;;7.68;67.34;98492.73;231916;202;137819;-60
2024/02/13 04:14:06;;;;;;;15.30;9.60;;;;;;;7.58;67.40;98499.46;231913;198;151366;-60
2024/02/13 04:19:11;;;;;;;17.00;9.80;;;;;;;7.56;67.61;98507.90;231879;198;140467;-60
2024/02/13 04:24:14;;;;;;;20.40;10.40;;;;;;;7.51;67.52;98517.52;231914;198;137352;-60
2024/02/13 04:29:17;;;;;;;19.50;10.00;;;;;;;7.44;67.76;98517.93;232238;198;151166;-59
2024/02/13 04:34:21;;;;;;;16.20;9.40;;;;;;;7.45;67.89;98523.91;232018;205;137430;-61
2024/02/13 04:39:24;;;;;;;14.70;10.30;;;;;;;7.44;67.86;98527.45;232188;202;137920;-60
2024/02/13 04:44:28;;;;;;;16.30;10.40;;;;;;;7.52;67.94;98532.98;232151;204;151159;-66
2024/02/13 04:49:32;;;;;;;15.80;10.10;;;;;;;7.64;67.72;98536.20;232050;201;137361;-59
2024/02/13 04:54:36;;;;;;;17.30;10.30;;;;;;;7.63;67.57;98542.08;232115;201;141535;-60
2024/02/13 04:59:47;;;;;;;18.30;10.50;;;;;;;7.60;67.49;98541.39;232157;202;151779;-59
2024/02/13 05:10:15;;;;;;;16.50;10.50;;;;;;;7.48;67.64;98561.32;232277;198;137919;-56
2024/02/13 05:15:21;;;;;;;16.90;9.90;;;;;;;7.43;67.69;98572.75;232213;205;151827;-59
2024/02/13 05:20:24;;;;;;;18.70;10.10;;;;;;;7.38;67.79;98578.33;231992;198;137199;-58
2024/02/13 05:25:29;;;;;;;17.60;11.10;;;;;;;7.28;68.05;98586.81;232070;198;137322;-57
2024/02/13 05:30:32;;;;;;;19.70;11.30;;;;;;;7.20;68.20;98593.23;232068;198;151175;-58
2024/02/13 05:35:38;;;;;;;16.00;10.40;;;;;;;7.19;68.32;98601.40;232136;201;139234;-57
2024/02/13 05:40:43;;;;;;;16.00;11.10;;;;;;;7.24;68.38;98606.27;232181;204;137963;-58
2024/02/13 05:45:49;;;;;;;18.80;11.40;;;;;;;7.26;68.42;98620.27;232422;204;151640;-58
2024/02/13 05:50:53;;;;;;;16.20;11.70;;;;;;;7.31;68.26;98631.63;232121;198;137191;-58
2024/02/13 05:55:56;;;;;;;21.90;12.30;;;;;;;7.24;68.39;98639.95;232048;198;138035;-58
2024/02/13 06:01:00;;;;;;;16.70;11.60;;;;;;;7.18;68.42;98648.05;232030;201;152013;-59
2024/02/13 06:06:05;;;;;;;19.20;11.70;;;;;;;7.08;68.51;98648.95;232200;202;136781;-57
2024/02/13 06:11:08;;;;;;;36.60;25.80;;;;;;;7.10;69.36;98659.58;232132;204;138247;-59
2024/02/13 06:16:16;;;;;;;23.70;14.50;;;;;;;7.09;69.22;98658.23;232250;201;152096;-58
2024/02/13 06:21:20;;;;;;;66.00;47.00;;;;;;;7.13;69.22;98665.25;231844;204;136901;-58
2024/02/13 06:26:27;;;;;;;19.50;12.10;;;;;;;7.16;69.22;98679.05;231615;201;137931;-59
2024/02/13 06:31:32;;;;;;;21.70;11.80;;;;;;;7.22;69.09;98681.84;231921;205;151373;-58
2024/02/13 06:36:35;;;;;;;120.00;85.10;;;;;;;7.24;69.13;98693.58;231831;198;137744;-59
2024/02/13 06:41:40;;;;;;;24.70;16.70;;;;;;;7.26;69.27;98702.48;232127;204;138162;-58
2024/02/13 06:46:44;;;;;;;19.10;11.80;;;;;;;7.39;69.53;98700.54;231962;204;151555;-59
2024/02/13 06:51:47;;;;;;;22.50;13.00;;;;;;;7.42;68.98;98702.66;232193;198;137527;-59
2024/02/13 06:56:51;;;;;;;26.40;13.50;;;;;;;7.40;69.09;98710.90;232107;198;140549;-59
2024/02/13 07:01:54;;;;;;;21.10;14.00;;;;;;;7.36;69.13;98728.04;230472;198;150703;-60
2024/02/13 07:07:00;;;;;;;21.50;13.20;;;;;;;7.39;69.24;98733.87;231953;201;137770;-59
2024/02/13 07:12:21;;;;;;;42.60;29.50;;;;;;;7.41;69.13;98739.23;232039;204;137791;-59
2024/02/13 07:17:25;;;;;;;75.00;50.00;;;;;;;7.43;69.80;98746.55;232147;201;151310;-59
2024/02/13 07:22:29;;;;;;;20.00;13.10;;;;;;;7.52;69.78;98752.42;232054;197;138993;-58
2024/02/13 07:27:32;;;;;;;25.60;14.20;;;;;;;7.60;69.04;98757.62;232115;204;140029;-58
2024/02/13 07:32:35;;;;;;;21.70;14.40;;;;;;;7.70;68.95;98764.50;232060;198;151838;-59
2024/02/13 07:37:39;;;;;;;22.00;13.70;;;;;;;7.79;68.82;98765.08;231952;202;139449;-59
2024/02/13 07:42:42;;;;;;;20.90;14.00;;;;;;;7.79;68.86;98775.66;231941;198;137959;-59
2024/02/13 07:47:45;;;;;;;20.50;14.50;;;;;;;7.79;69.11;98786.79;231866;198;151207;-58
2024/02/13 07:52:48;;;;;;;22.00;14.50;;;;;;;7.76;69.42;98793.45;232031;198;138166;-59
2024/02/13 07:57:54;;;;;;;21.20;14.40;;;;;;;7.78;69.77;98798.13;232092;198;137562;-61
2024/02/13 08:02:57;;;;;;;23.60;15.40;;;;;;;7.86;69.90;98802.46;232095;201;152458;-61
2024/02/13 08:08:06;;;;;;;22.10;12.60;;;;;;;8.01;70.45;98804.46;231918;201;138498;-62
2024/02/13 08:13:12;;;;;;;20.80;13.40;;;;;;;8.11;69.64;98802.50;231899;201;138178;-60
2024/02/13 08:18:17;;;;;;;23.70;12.50;;;;;;;8.16;69.34;98808.24;232075;198;151516;-60
2024/02/13 08:23:21;;;;;;;20.30;11.50;;;;;;;8.23;68.92;98812.95;232073;202;141900;-60
2024/02/13 08:28:24;;;;;;;15.10;10.20;;;;;;;8.23;68.47;98815.78;232114;201;137906;-60
2024/02/13 08:33:28;;;;;;;14.70;10.20;;;;;;;8.22;68.59;98817.95;232170;201;151586;-64
2024/02/13 08:38:31;;;;;;;20.80;10.80;;;;;;;8.28;67.90;98823.48;232188;204;138211;-62
2024/02/13 08:43:34;;;;;;;11.80;8.70;;;;;;;8.38;67.45;98826.31;232092;198;140078;-59
2024/02/13 08:48:38;;;;;;;11.00;8.10;;;;;;;8.43;66.40;98831.50;232018;198;151596;-61
2024/02/13 08:53:41;;;;;;;12.40;7.70;;;;;;;8.52;65.95;98836.64;231875;201;138883;-60
2024/02/13 08:58:45;;;;;;;185.70;125.30;;;;;;;8.65;65.21;98844.41;232027;201;139977;-59
2024/02/13 09:03:48;;;;;;;11.00;7.90;;;;;;;8.82;64.66;98842.17;232069;197;151338;-57
2024/02/13 09:08:51;;;;;;;10.20;6.40;;;;;;;8.97;63.55;98848.20;231938;198;138162;-58
2024/02/13 09:13:54;;;;;;;12.00;5.70;;;;;;;9.06;62.61;98854.58;232039;197;137039;-61
2024/02/13 09:18:58;;;;;;;7.50;5.40;;;;;;;9.12;62.30;98857.77;232045;204;151888;-59
2024/02/13 09:24:03;;;;;;;9.50;5.30;;;;;;;9.16;61.95;98863.19;231975;197;138501;-60
2024/02/13 09:29:06;;;;;;;10.80;5.30;;;;;;;9.09;61.66;98869.95;231889;198;136894;-59
2024/02/13 09:34:12;;;;;;;8.60;5.10;;;;;;;8.96;61.66;98874.95;232076;205;151952;-58
2024/02/13 09:39:15;;;;;;;7.40;5.00;;;;;;;8.90;62.03;98875.11;231926;204;137058;-59
2024/02/13 09:44:18;;;;;;;9.80;5.70;;;;;;;8.99;62.09;98877.64;231992;201;136592;-58
2024/02/13 09:49:22;;;;;;;9.20;5.40;;;;;;;9.04;61.70;98882.45;231804;204;152299;-61
2024/02/13 09:54:26;;;;;;;51.70;35.00;;;;;;;9.05;62.84;98881.88;231883;198;137521;-63
2024/02/13 09:59:30;;;;;;;11.70;7.80;;;;;;;9.24;62.08;98889.05;231994;202;140720;-61
2024/02/13 10:04:33;;;;;;;9.60;5.80;;;;;;;9.26;61.23;98893.39;232039;201;152409;-56
2024/02/13 10:09:36;;;;;;;9.70;5.50;;;;;;;9.21;61.53;98893.83;232123;198;138451;-56
2024/02/13 10:14:39;;;;;;;9.00;5.80;;;;;;;9.19;61.87;98899.98;231969;198;139472;-58
2024/02/13 10:19:44;;;;;;;8.20;4.90;;;;;;;9.26;61.37;98896.80;232006;201;152398;-57
2024/02/13 10:24:54;;;;;;;8.40;5.20;;;;;;;9.33;61.38;98901.86;232029;205;136474;-56
2024/02/13 10:29:57;;;;;;;7.80;5.00;;;;;;;9.42;61.04;98906.08;232110;204;138707;-57
2024/02/13 10:35:04;;;;;;;7.40;5.00;;;;;;;9.49;60.04;98904.45;232088;201;151350;-54
2024/02/13 10:40:14;;;;;;;9.80;5.00;;;;;;;9.49;59.58;98906.71;232161;198;137080;-55
2024/02/13 10:45:17;;;;;;;6.30;4.60;;;;;;;9.54;59.23;98901.64;232122;205;138003;-56
2024/02/13 10:50:22;;;;;;;7.90;4.70;;;;;;;9.72;58.85;98898.10;231993;201;151873;-57
2024/02/13 10:55:26;;;;;;;4.60;2.90;;;;;;;9.91;57.06;98897.95;232044;204;137929;-56
2024/02/13 11:00:32;;;;;;;6.30;3.20;;;;;;;10.07;54.95;98894.35;232019;198;137374;-57
2024/02/13 11:05:36;;;;;;;3.80;2.40;;;;;;;10.15;53.91;98892.20;232068;202;152117;-57
2024/02/13 11:10:41;;;;;;;6.00;2.50;;;;;;;10.24;53.11;98893.45;232191;201;136755;-56
2024/02/13 11:15:45;;;;;;;3.80;1.90;;;;;;;10.33;52.04;98895.92;232252;201;140678;-56
2024/02/13 11:20:50;;;;;;;2.70;2.00;;;;;;;10.35;50.64;98897.03;231970;204;151305;-56
2024/02/13 11:25:58;;;;;;;4.60;1.90;;;;;;;10.40;50.42;98896.87;231963;204;137570;-54
2024/02/13 11:31:14;;;;;;;3.70;1.80;;;;;;;10.59;49.24;98897.48;232045;198;137810;-54
2024/02/13 11:36:20;;;;;;;5.90;2.10;;;;;;;10.67;49.39;98894.63;232055;201;151607;-54
2024/02/13 11:41:24;;;;;;;3.50;1.80;;;;;;;10.71;48.25;98898.63;232152;198;138029;-56
2024/02/13 11:46:27;;;;;;;3.40;1.70;;;;;;;10.61;47.27;98899.94;232181;198;138382;-55
2024/02/13 11:51:31;;;;;;;5.20;2.00;;;;;;;10.53;47.33;98903.37;232175;197;152066;-56
2024/02/13 11:56:35;;;;;;;2.40;1.60;;;;;;;10.51;47.60;98905.80;232098;202;138071;-55
2024/02/13 12:01:42;;;;;;;4.40;1.60;;;;;;;10.47;48.14;98905.65;232110;197;137585;-54
2024/02/13 12:06:47;;;;;;;4.80;1.80;;;;;;;10.46;47.93;98907.70;232144;204;151808;-55
2024/02/13 12:11:51;;;;;;;5.50;1.80;;;;;;;10.46;47.91;98912.66;232116;197;137674;-55
2024/02/13 12:17:01;;;;;;;4.90;1.90;;;;;;;10.45;47.55;98913.05;232103;204;138144;-53
2024/02/13 12:22:09;;;;;;;2.80;1.80;;;;;;;10.44;47.91;98914.41;231937;204;151588;-53
2024/02/13 12:27:16;;;;;;;3.80;1.90;;;;;;;10.48;47.56;98915.00;232097;198;137810;-54
2024/02/13 12:32:20;;;;;;;4.80;1.70;;;;;;;10.49;47.35;98918.13;232042;201;137897;-54
2024/02/13 12:37:24;;;;;;;2.50;1.50;;;;;;;10.47;46.68;98925.04;231843;198;152484;-54
2024/02/13 12:42:28;;;;;;;2.80;1.60;;;;;;;10.49;46.79;98926.67;231985;201;137827;-54
2024/02/13 12:47:31;;;;;;;3.80;1.50;;;;;;;10.53;46.73;98926.23;232113;204;136793;-54
2024/02/13 12:52:36;;;;;;;4.00;1.80;;;;;;;10.49;46.48;98926.27;232049;204;152311;-54
2024/02/13 12:57:40;;;;;;;6.80;3.60;;;;;;;10.51;46.72;98930.23;232176;201;139315;-53
2024/02/13 13:02:44;;;;;;;3.90;1.80;;;;;;;10.54;46.42;98938.05;232058;197;138375;-53
2024/02/13 13:07:49;;;;;;;3.20;1.80;;;;;;;10.49;46.21;98939.40;231881;202;152811;-54
2024/02/13 13:12:54;;;;;;;5.20;1.70;;;;;;;10.44;46.05;98943.80;232165;197;141348;-54
2024/02/13 13:18:01;;;;;;;6.00;2.70;;;;;;;10.43;46.61;98949.54;232124;198;137312;-56
2024/02/13 13:23:05;;;;;;;4.60;1.70;;;;;;;10.38;46.56;98956.21;232022;198;152441;-54
2024/02/13 13:28:09;;;;;;;3.70;1.80;;;;;;;10.31;46.54;98966.44;232091;204;138683;-54
2024/02/13 13:33:19;;;;;;;5.30;1.80;;;;;;;10.34;47.05;98976.39;232151;198;139230;-56
2024/02/13 13:38:25;;;;;;;4.00;2.20;;;;;;;10.32;47.58;98981.13;232049;202;152234;-54
2024/02/13 13:43:31;;;;;;;5.70;2.30;;;;;;;10.26;48.02;98986.59;232027;204;137323;-56
2024/02/13 13:48:34;;;;;;;6.00;2.50;;;;;;;10.29;48.43;98996.01;232142;205;138162;-56
2024/02/13 13:53:40;;;;;;;6.30;2.40;;;;;;;10.31;48.94;98996.38;231993;201;151187;-56
2024/02/13 13:58:43;;;;;;;10.00;4.60;;;;;;;10.28;49.23;99006.34;232047;201;137777;-56
2024/02/13 14:03:48;;;;;;;5.70;2.70;;;;;;;10.22;49.81;99009.15;232180;204;139743;-54
2024/02/13 14:08:51;;;;;;;6.20;2.70;;;;;;;10.12;50.12;99015.46;232092;204;152205;-56
2024/02/13 14:13:57;;;;;;;6.10;2.60;;;;;;;10.10;50.54;99022.27;232073;197;138544;-56
2024/02/13 14:19:00;;;;;;;7.40;3.60;;;;;;;10.03;50.95;99029.27;232063;197;138056;-55
2024/02/13 14:24:07;;;;;;;12.30;3.30;;;;;;;9.90;50.48;99036.59;232065;197;151585;-57
2024/02/13 14:29:12;;;;;;;6.80;3.00;;;;;;;9.84;50.75;99044.24;231995;198;137403;-56
2024/02/13 14:34:16;;;;;;;9.90;3.80;;;;;;;9.83;50.93;99055.44;232325;201;137483;-54
2024/02/13 14:39:19;;;;;;;12.70;3.60;;;;;;;9.80;51.19;99060.25;232072;198;153991;-56
2024/02/13 14:44:23;;;;;;;7.10;3.60;;;;;;;9.80;51.48;99062.72;232023;198;136990;-59
2024/02/13 14:49:27;;;;;;;6.80;4.00;;;;;;;9.80;51.68;99066.64;232125;198;136940;-56
2024/02/13 14:54:32;;;;;;;6.70;3.60;;;;;;;9.66;51.68;99071.64;232056;197;151314;-58
2024/02/13 14:59:37;;;;;;;6.90;3.50;;;;;;;9.60;52.08;99076.96;232009;197;137058;-59
2024/02/13 15:04:41;;;;;;;4.50;3.20;;;;;;;9.56;51.86;99084.47;231960;198;137391;-58
2024/02/13 15:09:48;;;;;;;6.00;3.10;;;;;;;9.49;51.95;99091.42;232064;204;151459;-55
2024/02/13 15:14:53;;;;;;;8.60;3.30;;;;;;;9.45;52.07;99094.85;232204;198;137203;-56
2024/02/13 15:19:57;;;;;;;5.50;3.40;;;;;;;9.43;52.41;99103.27;231934;198;140125;-53
2024/02/13 15:25:08;;;;;;;16.60;9.90;;;;;;;9.45;52.55;99111.65;232040;198;153484;-52
2024/02/13 15:30:13;;;;;;;9.70;5.20;;;;;;;9.50;53.63;99114.39;231714;201;136966;-57
2024/02/13 15:35:19;;;;;;;12.50;4.20;;;;;;;9.49;53.08;99122.08;232039;204;137243;-51
2024/02/13 15:51:09;;;;;;;9.40;4.20;;;;;;;9.32;54.00;99151.02;232120;204;137201;-53
2024/02/13 15:56:14;;;;;;;7.00;4.40;;;;;;;9.26;54.30;99163.01;232064;198;151949;-53
2024/02/13 16:01:17;;;;;;;11.70;4.80;;;;;;;9.22;54.63;99169.77;232018;198;137514;-53
2024/02/13 16:06:20;;;;;;;13.90;5.30;;;;;;;9.19;54.88;99177.92;232147;197;137091;-53
2024/02/13 16:11:24;;;;;;;12.50;5.90;;;;;;;9.19;55.06;99194.88;231835;198;151498;-55
2024/02/13 16:16:28;;;;;;;11.70;6.30;;;;;;;9.21;55.06;99200.63;232101;198;137529;-53
2024/02/13 16:21:31;;;;;;;9.40;5.70;;;;;;;9.23;55.07;99206.91;232227;198;137126;-55
2024/02/13 16:26:34;;;;;;;11.60;6.50;;;;;;;9.24;54.95;99218.00;231963;198;151249;-54
2024/02/13 16:31:38;;;;;;;13.20;6.00;;;;;;;9.12;54.64;99228.36;232012;204;137589;-56
2024/02/13 16:36:41;;;;;;;8.30;5.10;;;;;;;9.00;54.53;99236.46;232063;204;137277;-54
2024/02/13 16:41:48;;;;;;;7.50;4.20;;;;;;;8.93;53.56;99238.58;231929;204;151113;-55
2024/02/13 16:46:52;;;;;;;7.40;3.70;;;;;;;8.86;52.21;99247.09;232069;204;137003;-54
2024/02/13 16:51:55;;;;;;;7.00;4.00;;;;;;;8.67;52.01;99256.16;232200;201;137186;-55
2024/02/13 16:56:59;;;;;;;8.50;4.10;;;;;;;8.56;51.95;99264.86;232034;198;150552;-55
2024/02/13 17:02:03;;;;;;;6.30;3.80;;;;;;;8.50;51.90;99267.83;232070;197;137087;-55
2024/02/13 17:07:07;;;;;;;8.30;4.10;;;;;;;8.46;51.84;99275.99;232191;196;137903;-56
2024/02/13 17:12:11;;;;;;;9.80;5.40;;;;;;;8.38;51.86;99284.46;232115;196;151628;-57
2024/02/13 17:17:15;;;;;;;97.80;73.70;;;;;;;8.36;53.13;99288.84;232124;198;137287;-58
2024/02/13 17:22:20;;;;;;;12.80;7.50;;;;;;;8.46;52.90;99296.67;232196;204;137400;-56
2024/02/13 17:27:26;;;;;;;12.40;6.00;;;;;;;8.32;52.00;99306.50;232112;204;151786;-56
2024/02/13 17:32:29;;;;;;;10.50;6.20;;;;;;;8.13;52.22;99312.04;231986;198;137176;-57
2024/02/13 17:37:33;;;;;;;13.40;6.20;;;;;;;8.00;52.38;99320.05;232102;204;136880;-57
2024/02/13 17:42:36;;;;;;;8.30;4.50;;;;;;;7.93;52.19;99326.59;231994;204;151798;-56
2024/02/13 17:47:39;;;;;;;171.50;105.70;;;;;;;7.86;51.95;99329.55;232113;197;137145;-56
2024/02/13 17:52:43;;;;;;;11.90;6.00;;;;;;;7.88;51.18;99332.13;232088;204;137911;-58
2024/02/13 17:57:46;;;;;;;6.50;3.70;;;;;;;7.83;50.68;99335.50;232237;204;151450;-56
2024/02/13 18:02:50;;;;;;;5.20;3.00;;;;;;;7.82;50.81;99330.06;231734;201;139750;-57
2024/02/13 18:07:53;;;;;;;6.60;3.60;;;;;;;7.87;51.47;99333.74;232028;198;137526;-58
2024/02/13 18:12:58;;;;;;;7.30;3.30;;;;;;;7.91;51.00;99337.98;232037;198;151402;-58
2024/02/13 18:18:02;;;;;;;6.00;3.20;;;;;;;7.93;50.61;99338.95;231975;204;138002;-56
2024/02/13 18:23:07;;;;;;;6.30;3.50;;;;;;;7.97;50.32;99348.97;232038;201;138408;-61
2024/02/13 18:28:13;;;;;;;9.70;3.90;;;;;;;7.99;50.30;99348.05;232245;202;151686;-62
2024/02/13 18:33:16;;;;;;;12.00;4.80;;;;;;;8.00;50.55;99347.98;232133;204;138688;-62
2024/02/13 18:38:20;;;;;;;9.40;4.40;;;;;;;8.02;50.56;99352.31;231886;201;137045;-65
2024/02/13 18:43:25;;;;;;;24.90;18.50;;;;;;;8.12;52.05;99347.95;231678;198;152120;-62
2024/02/13 18:48:30;;;;;;;12.10;5.60;;;;;;;8.34;51.37;99345.67;231918;197;138566;-61
2024/02/13 18:53:34;;;;;;;11.00;5.80;;;;;;;8.26;50.89;99354.86;232044;205;137176;-62
2024/02/13 18:58:38;;;;;;;13.10;6.40;;;;;;;8.22;51.06;99362.69;231963;204;151133;-61
2024/02/13 19:03:42;;;;;;;11.20;6.00;;;;;;;8.17;51.29;99367.33;232081;205;136927;-61
2024/02/13 19:08:45;;;;;;;129.50;87.30;;;;;;;8.15;51.89;99373.26;232162;202;137323;-61
2024/02/13 19:13:49;;;;;;;19.70;11.10;;;;;;;8.20;52.56;99377.80;231862;198;154669;-64
2024/02/13 19:18:52;;;;;;;15.90;8.00;;;;;;;8.19;51.99;99383.50;232010;204;137887;-63
2024/02/13 19:23:56;;;;;;;12.60;6.40;;;;;;;8.16;52.29;99384.15;232059;201;137103;-62
2024/02/13 19:29:04;;;;;;;16.10;6.30;;;;;;;8.14;52.32;99388.50;232103;204;151481;-64
2024/02/13 19:34:07;;;;;;;13.10;6.40;;;;;;;8.09;52.63;99392.25;232212;204;137423;-63
2024/02/13 19:39:12;;;;;;;13.90;6.50;;;;;;;8.04;52.76;99403.47;232088;201;137573;-63
2024/02/13 19:44:17;;;;;;;10.80;6.00;;;;;;;8.02;53.02;99410.77;232120;204;153829;-63
2024/02/13 19:49:20;;;;;;;14.90;7.50;;;;;;;8.02;53.23;99415.89;232032;201;140254;-62
2024/02/13 19:54:24;;;;;;;21.90;14.60;;;;;;;8.00;54.09;99414.61;232124;198;140143;-62
2024/02/13 19:59:27;;;;;;;13.40;7.60;;;;;;;8.07;53.88;99419.73;232047;197;151180;-62
2024/02/13 20:04:30;;;;;;;14.10;8.00;;;;;;;8.03;53.85;99424.52;232003;204;138664;-62
2024/02/13 20:09:34;;;;;;;14.50;7.20;;;;;;;8.04;54.03;99424.48;232048;198;136886;-62
2024/02/13 20:14:37;;;;;;;17.40;7.50;;;;;;;8.02;54.16;99425.80;232110;204;152009;-62
2024/02/13 20:19:41;;;;;;;15.80;7.70;;;;;;;8.00;54.35;99420.92;232097;201;137390;-62
2024/02/13 20:24:45;;;;;;;16.30;7.30;;;;;;;8.01;54.43;99421.95;232056;204;137542;-61
2024/02/13 20:29:49;;;;;;;19.00;7.90;;;;;;;8.00;54.65;99424.11;232090;204;152162;-61
2024/02/13 20:34:53;;;;;;;18.00;8.00;;;;;;;8.01;54.75;99422.14;232152;204;137444;-63
2024/02/13 20:39:57;;;;;;;16.20;7.70;;;;;;;8.01;54.81;99427.07;232066;198;137278;-62
2024/02/13 20:45:01;;;;;;;17.20;8.20;;;;;;;7.99;54.93;99430.54;231880;201;152157;-63
2024/02/13 20:50:19;;;;;;;14.30;7.50;;;;;;;7.98;54.99;99431.64;231863;198;137654;-61
2024/02/13 20:55:22;;;;;;;13.20;7.50;;;;;;;7.97;55.15;99430.80;232114;201;137242;-62
2024/02/13 21:00:28;;;;;;;16.00;8.10;;;;;;;7.97;55.19;99433.63;232107;197;151541;-61
2024/02/13 21:05:31;;;;;;;13.30;7.80;;;;;;;7.95;55.26;99441.34;232069;201;140176;-60
2024/02/13 21:10:34;;;;;;;17.00;8.20;;;;;;;7.92;55.45;99437.23;232090;204;137278;-61
2024/02/13 21:15:38;;;;;;;14.90;8.70;;;;;;;7.91;55.71;99439.93;231987;198;152277;-62
2024/02/13 21:20:41;;;;;;;19.10;10.30;;;;;;;7.92;56.04;99438.82;231736;196;137170;-62
2024/02/13 21:25:46;;;;;;;18.30;10.00;;;;;;;7.94;56.39;99441.36;231905;198;137358;-61
2024/02/13 21:30:50;;;;;;;22.20;9.60;;;;;;;7.96;56.51;99444.80;232003;197;151560;-61
2024/02/13 21:35:53;;;;;;;19.90;11.20;;;;;;;7.92;56.81;99448.17;232036;202;137315;-60
2024/02/13 21:40:57;;;;;;;21.20;10.40;;;;;;;7.89;57.09;99450.23;231905;198;136830;-60
2024/02/13 21:46:00;;;;;;;20.80;10.70;;;;;;;7.87;57.22;99452.96;232110;201;154030;-60
2024/02/13 21:51:03;;;;;;;23.00;11.30;;;;;;;7.81;57.22;99458.52;231910;197;138184;-57
2024/02/13 21:56:07;;;;;;;19.80;11.80;;;;;;;7.77;57.36;99461.01;231948;197;139838;-61
2024/02/13 22:01:11;;;;;;;20.40;11.30;;;;;;;7.76;57.42;99463.69;231836;198;151248;-61
2024/02/13 22:06:14;;;;;;;20.50;11.40;;;;;;;7.70;57.45;99463.64;231997;205;137693;-61
2024/02/13 22:11:18;;;;;;;22.50;12.30;;;;;;;7.64;57.76;99463.33;232138;198;136825;-60
2024/02/13 22:16:22;;;;;;;18.30;11.00;;;;;;;7.63;57.87;99468.01;232073;198;151507;-59
2024/02/13 22:21:26;;;;;;;23.70;11.10;;;;;;;7.58;57.77;99473.33;232136;198;137799;-61
2024/02/13 22:26:29;;;;;;;19.50;11.30;;;;;;;7.58;57.56;99478.94;231985;198;137517;-61
2024/02/13 22:31:33;;;;;;;19.50;10.70;;;;;;;7.61;57.50;99481.67;231823;198;151417;-61
2024/02/13 22:36:36;;;;;;;25.50;12.10;;;;;;;7.55;57.58;99482.27;231647;198;139162;-60
2024/02/13 22:41:39;;;;;;;20.30;10.60;;;;;;;7.55;57.46;99484.37;232140;198;137585;-61
2024/02/13 22:46:43;;;;;;;19.80;10.80;;;;;;;7.55;57.20;99486.17;231956;198;151444;-62
2024/02/13 22:51:46;;;;;;;17.80;10.80;;;;;;;7.53;56.94;99495.42;232054;205;137618;-62
2024/02/13 22:56:53;;;;;;;19.40;11.20;;;;;;;7.53;56.73;99500.52;232069;201;136825;-62
2024/02/13 23:01:57;;;;;;;20.60;10.90;;;;;;;7.55;56.53;99501.89;231967;198;152640;-61
2024/02/13 23:07:01;;;;;;;18.50;9.70;;;;;;;7.54;56.30;99503.49;232001;198;136913;-61
2024/02/13 23:12:04;;;;;;;18.30;9.60;;;;;;;7.49;55.79;99509.37;231972;205;136929;-62
2024/02/13 23:17:09;;;;;;;17.80;9.20;;;;;;;7.40;55.47;99509.75;231979;201;151422;-63
2024/02/13 23:22:13;;;;;;;20.10;8.80;;;;;;;7.37;55.75;99510.77;232048;204;137109;-60
2024/02/13 23:27:17;;;;;;;17.40;8.80;;;;;;;7.34;55.66;99514.55;232155;201;137912;-59
2024/02/13 23:32:20;;;;;;;18.80;9.30;;;;;;;7.32;55.58;99516.95;232105;204;151697;-62
2024/02/13 23:37:23;;;;;;;17.10;8.90;;;;;;;7.24;55.89;99518.67;232187;201;137349;-61
2024/02/13 23:42:26;;;;;;;20.20;9.20;;;;;;;7.16;56.11;99521.64;232172;198;137550;-61
2024/02/13 23:47:29;;;;;;;22.60;9.30;;;;;;;7.19;56.05;99525.96;232096;204;151433;-60